sensor_id;sensor_type;location;lat;lon;timestamp;P1;durP1;ratioP1;P2;durP2;ratioP2
2784;SDS011;57944;48.722;9.316;2024-03-22T00:01:46;40.60;;;25.03;;
2784;SDS011;57944;48.722;9.316;2024-03-22T00:04:13;40.03;;;24.53;;
2784;SDS011;57944;48.722;9.316;2024-03-22T00:06:41;37.57;;;24.53;;
2784;SDS011;57944;48.722;9.316;2024-03-22T00:09:08;42.27;;;25.20;;
2784;SDS011;57944;48.722;9.316;2024-03-22T00:11:39;40.50;;;23.67;;
2784;SDS011;57944;48.722;9.316;2024-03-22T00:14:06;40.17;;;25.00;;
2784;SDS011;57944;48.722;9.316;2024-03-22T00:16:33;42.63;;;22.30;;
2784;SDS011;57944;48.722;9.316;2024-03-22T00:19:01;43.40;;;24.00;;
2784;SDS011;57944;48.722;9.316;2024-03-22T00:21:28;39.93;;;24.53;;
2784;SDS011;57944;48.722;9.316;2024-03-22T00:23:55;46.80;;;24.57;;
2784;SDS011;57944;48.722;9.316;2024-03-22T00:26:22;36.93;;;22.43;;
2784;SDS011;57944;48.722;9.316;2024-03-22T00:28:51;43.90;;;24.80;;
2784;SDS011;57944;48.722;9.316;2024-03-22T00:31:18;38.63;;;25.10;;
2784;SDS011;57944;48.722;9.316;2024-03-22T00:33:45;37.63;;;24.60;;
2784;SDS011;57944;48.722;9.316;2024-03-22T00:36:12;38.97;;;25.40;;
2784;SDS011;57944;48.722;9.316;2024-03-22T00:38:39;40.47;;;28.07;;
2784;SDS011;57944;48.722;9.316;2024-03-22T00:41:06;34.50;;;23.57;;
2784;SDS011;57944;48.722;9.316;2024-03-22T00:43:33;45.13;;;26.47;;
2784;SDS011;57944;48.722;9.316;2024-03-22T00:46:03;46.07;;;25.77;;
2784;SDS011;57944;48.722;9.316;2024-03-22T00:48:30;40.43;;;26.33;;
2784;SDS011;57944;48.722;9.316;2024-03-22T00:50:57;44.00;;;27.97;;
2784;SDS011;57944;48.722;9.316;2024-03-22T00:53:24;49.83;;;28.00;;
2784;SDS011;57944;48.722;9.316;2024-03-22T00:55:51;50.13;;;28.23;;
2784;SDS011;57944;48.722;9.316;2024-03-22T00:58:18;35.63;;;26.83;;
2784;SDS011;57944;48.722;9.316;2024-03-22T01:00:45;42.63;;;24.00;;
2784;SDS011;57944;48.722;9.316;2024-03-22T01:03:14;44.47;;;27.07;;
2784;SDS011;57944;48.722;9.316;2024-03-22T01:05:41;45.17;;;26.23;;
2784;SDS011;57944;48.722;9.316;2024-03-22T01:08:08;53.00;;;26.83;;
2784;SDS011;57944;48.722;9.316;2024-03-22T01:10:35;45.23;;;29.17;;
2784;SDS011;57944;48.722;9.316;2024-03-22T01:13:02;41.83;;;25.77;;
2784;SDS011;57944;48.722;9.316;2024-03-22T01:15:29;42.77;;;25.47;;
2784;SDS011;57944;48.722;9.316;2024-03-22T01:17:56;39.03;;;24.07;;
2784;SDS011;57944;48.722;9.316;2024-03-22T01:20:26;39.17;;;24.07;;
2784;SDS011;57944;48.722;9.316;2024-03-22T01:22:53;43.63;;;24.07;;
2784;SDS011;57944;48.722;9.316;2024-03-22T01:25:20;50.07;;;24.57;;
2784;SDS011;57944;48.722;9.316;2024-03-22T01:27:47;40.90;;;24.37;;
2784;SDS011;57944;48.722;9.316;2024-03-22T01:30:14;38.13;;;23.73;;
2784;SDS011;57944;48.722;9.316;2024-03-22T01:32:41;41.57;;;24.07;;
2784;SDS011;57944;48.722;9.316;2024-03-22T01:35:08;35.57;;;21.80;;
2784;SDS011;57944;48.722;9.316;2024-03-22T01:37:37;33.93;;;21.63;;
2784;SDS011;57944;48.722;9.316;2024-03-22T01:40:05;38.87;;;23.53;;
2784;SDS011;57944;48.722;9.316;2024-03-22T01:42:33;35.37;;;23.47;;
2784;SDS011;57944;48.722;9.316;2024-03-22T01:45:00;33.10;;;23.07;;
2784;SDS011;57944;48.722;9.316;2024-03-22T01:47:27;43.13;;;27.23;;
2784;SDS011;57944;48.722;9.316;2024-03-22T01:49:54;48.77;;;24.30;;
2784;SDS011;57944;48.722;9.316;2024-03-22T01:52:22;43.07;;;25.00;;
2784;SDS011;57944;48.722;9.316;2024-03-22T01:54:51;42.23;;;24.03;;
2784;SDS011;57944;48.722;9.316;2024-03-22T01:57:19;49.90;;;25.47;;
2784;SDS011;57944;48.722;9.316;2024-03-22T01:59:46;44.80;;;25.77;;
2784;SDS011;57944;48.722;9.316;2024-03-22T02:02:15;47.30;;;25.23;;
2784;SDS011;57944;48.722;9.316;2024-03-22T02:04:42;44.10;;;22.97;;
2784;SDS011;57944;48.722;9.316;2024-03-22T02:07:09;40.77;;;24.57;;
2784;SDS011;57944;48.722;9.316;2024-03-22T02:09:36;44.73;;;25.77;;
2784;SDS011;57944;48.722;9.316;2024-03-22T02:12:06;38.83;;;23.80;;
2784;SDS011;57944;48.722;9.316;2024-03-22T02:14:34;38.70;;;24.27;;
2784;SDS011;57944;48.722;9.316;2024-03-22T02:17:01;47.20;;;23.90;;
2784;SDS011;57944;48.722;9.316;2024-03-22T02:19:27;51.13;;;24.90;;
2784;SDS011;57944;48.722;9.316;2024-03-22T02:21:54;48.27;;;25.90;;
2784;SDS011;57944;48.722;9.316;2024-03-22T02:24:24;41.63;;;23.47;;
2784;SDS011;57944;48.722;9.316;2024-03-22T02:26:51;40.90;;;25.80;;
2784;SDS011;57944;48.722;9.316;2024-03-22T02:29:18;43.80;;;25.17;;
2784;SDS011;57944;48.722;9.316;2024-03-22T02:31:44;37.33;;;24.23;;
2784;SDS011;57944;48.722;9.316;2024-03-22T02:34:11;46.83;;;24.47;;
2784;SDS011;57944;48.722;9.316;2024-03-22T02:36:38;43.30;;;22.53;;
2784;SDS011;57944;48.722;9.316;2024-03-22T02:39:05;52.07;;;25.93;;
2784;SDS011;57944;48.722;9.316;2024-03-22T02:41:35;36.80;;;23.17;;
2784;SDS011;57944;48.722;9.316;2024-03-22T02:44:02;35.97;;;23.10;;
2784;SDS011;57944;48.722;9.316;2024-03-22T02:46:29;47.80;;;26.00;;
2784;SDS011;57944;48.722;9.316;2024-03-22T02:48:56;35.80;;;22.60;;
2784;SDS011;57944;48.722;9.316;2024-03-22T02:51:22;36.63;;;22.87;;
2784;SDS011;57944;48.722;9.316;2024-03-22T02:53:49;41.93;;;25.07;;
2784;SDS011;57944;48.722;9.316;2024-03-22T02:56:16;36.43;;;22.70;;
2784;SDS011;57944;48.722;9.316;2024-03-22T02:58:46;41.60;;;23.87;;
2784;SDS011;57944;48.722;9.316;2024-03-22T03:01:14;34.77;;;22.10;;
2784;SDS011;57944;48.722;9.316;2024-03-22T03:03:41;45.53;;;24.73;;
2784;SDS011;57944;48.722;9.316;2024-03-22T03:06:08;39.93;;;23.30;;
2784;SDS011;57944;48.722;9.316;2024-03-22T03:08:35;44.30;;;22.83;;
2784;SDS011;57944;48.722;9.316;2024-03-22T03:11:02;41.93;;;25.10;;
2784;SDS011;57944;48.722;9.316;2024-03-22T03:13:29;50.70;;;24.27;;
2784;SDS011;57944;48.722;9.316;2024-03-22T03:15:58;45.00;;;23.73;;
2784;SDS011;57944;48.722;9.316;2024-03-22T03:18:25;42.70;;;22.37;;
2784;SDS011;57944;48.722;9.316;2024-03-22T03:20:52;38.20;;;23.13;;
2784;SDS011;57944;48.722;9.316;2024-03-22T03:23:19;35.57;;;23.17;;
2784;SDS011;57944;48.722;9.316;2024-03-22T03:25:46;41.70;;;22.93;;
2784;SDS011;57944;48.722;9.316;2024-03-22T03:28:13;43.43;;;27.17;;
2784;SDS011;57944;48.722;9.316;2024-03-22T03:30:40;43.70;;;24.50;;
2784;SDS011;57944;48.722;9.316;2024-03-22T03:33:09;39.00;;;23.13;;
2784;SDS011;57944;48.722;9.316;2024-03-22T03:35:36;42.90;;;23.13;;
2784;SDS011;57944;48.722;9.316;2024-03-22T03:38:03;49.37;;;26.47;;
2784;SDS011;57944;48.722;9.316;2024-03-22T03:40:30;39.87;;;24.87;;
2784;SDS011;57944;48.722;9.316;2024-03-22T03:42:57;45.97;;;26.07;;
2784;SDS011;57944;48.722;9.316;2024-03-22T03:45:23;46.17;;;26.03;;
2784;SDS011;57944;48.722;9.316;2024-03-22T03:47:50;43.70;;;25.70;;
2784;SDS011;57944;48.722;9.316;2024-03-22T03:50:20;44.00;;;26.73;;
2784;SDS011;57944;48.722;9.316;2024-03-22T03:52:46;48.20;;;25.47;;
2784;SDS011;57944;48.722;9.316;2024-03-22T03:55:13;38.03;;;23.30;;
2784;SDS011;57944;48.722;9.316;2024-03-22T03:57:41;48.03;;;25.30;;
2784;SDS011;57944;48.722;9.316;2024-03-22T04:00:08;47.73;;;26.50;;
2784;SDS011;57944;48.722;9.316;2024-03-22T04:02:35;42.50;;;24.30;;
2784;SDS011;57944;48.722;9.316;2024-03-22T04:05:02;44.47;;;23.67;;
2784;SDS011;57944;48.722;9.316;2024-03-22T04:07:34;47.67;;;25.63;;
2784;SDS011;57944;48.722;9.316;2024-03-22T04:10:01;44.40;;;24.80;;
2784;SDS011;57944;48.722;9.316;2024-03-22T04:12:27;46.07;;;24.10;;
2784;SDS011;57944;48.722;9.316;2024-03-22T04:14:54;47.63;;;24.67;;
2784;SDS011;57944;48.722;9.316;2024-03-22T04:17:21;41.03;;;24.30;;
2784;SDS011;57944;48.722;9.316;2024-03-22T04:19:49;44.07;;;24.70;;
2784;SDS011;57944;48.722;9.316;2024-03-22T04:22:16;45.33;;;24.83;;
2784;SDS011;57944;48.722;9.316;2024-03-22T04:24:45;36.77;;;22.57;;
2784;SDS011;57944;48.722;9.316;2024-03-22T04:27:12;48.23;;;23.47;;
2784;SDS011;57944;48.722;9.316;2024-03-22T04:29:39;43.17;;;24.87;;
2784;SDS011;57944;48.722;9.316;2024-03-22T04:32:06;43.70;;;25.73;;
2784;SDS011;57944;48.722;9.316;2024-03-22T04:34:33;49.10;;;27.47;;
2784;SDS011;57944;48.722;9.316;2024-03-22T04:37:00;49.23;;;28.87;;
2784;SDS011;57944;48.722;9.316;2024-03-22T04:39:27;50.83;;;29.83;;
2784;SDS011;57944;48.722;9.316;2024-03-22T04:41:56;49.60;;;26.90;;
2784;SDS011;57944;48.722;9.316;2024-03-22T04:44:23;45.13;;;25.83;;
2784;SDS011;57944;48.722;9.316;2024-03-22T04:46:50;54.23;;;26.80;;
2784;SDS011;57944;48.722;9.316;2024-03-22T04:49:17;48.30;;;29.50;;
2784;SDS011;57944;48.722;9.316;2024-03-22T04:51:44;53.23;;;27.33;;
2784;SDS011;57944;48.722;9.316;2024-03-22T04:54:10;45.30;;;27.63;;
2784;SDS011;57944;48.722;9.316;2024-03-22T04:56:39;36.83;;;23.53;;
2784;SDS011;57944;48.722;9.316;2024-03-22T04:59:09;42.37;;;25.00;;
2784;SDS011;57944;48.722;9.316;2024-03-22T05:01:35;41.17;;;26.90;;
2784;SDS011;57944;48.722;9.316;2024-03-22T05:04:03;53.23;;;29.20;;
2784;SDS011;57944;48.722;9.316;2024-03-22T05:06:30;45.83;;;25.90;;
2784;SDS011;57944;48.722;9.316;2024-03-22T05:08:57;45.70;;;27.23;;
2784;SDS011;57944;48.722;9.316;2024-03-22T05:11:23;45.27;;;27.20;;
2784;SDS011;57944;48.722;9.316;2024-03-22T05:13:50;39.93;;;25.30;;
2784;SDS011;57944;48.722;9.316;2024-03-22T05:16:20;57.77;;;27.80;;
2784;SDS011;57944;48.722;9.316;2024-03-22T05:18:47;53.37;;;26.30;;
2784;SDS011;57944;48.722;9.316;2024-03-22T05:21:13;47.57;;;25.93;;
2784;SDS011;57944;48.722;9.316;2024-03-22T05:23:40;44.07;;;25.93;;
2784;SDS011;57944;48.722;9.316;2024-03-22T05:26:07;45.93;;;28.20;;
2784;SDS011;57944;48.722;9.316;2024-03-22T05:28:34;48.67;;;29.43;;
2784;SDS011;57944;48.722;9.316;2024-03-22T05:31:01;64.20;;;27.83;;
2784;SDS011;57944;48.722;9.316;2024-03-22T05:33:30;39.60;;;25.83;;
2784;SDS011;57944;48.722;9.316;2024-03-22T05:35:57;47.40;;;26.67;;
2784;SDS011;57944;48.722;9.316;2024-03-22T05:38:24;49.30;;;30.20;;
2784;SDS011;57944;48.722;9.316;2024-03-22T05:40:51;46.20;;;29.40;;
2784;SDS011;57944;48.722;9.316;2024-03-22T05:43:18;52.23;;;28.20;;
2784;SDS011;57944;48.722;9.316;2024-03-22T05:45:45;50.10;;;27.03;;
2784;SDS011;57944;48.722;9.316;2024-03-22T05:48:12;40.30;;;26.90;;
2784;SDS011;57944;48.722;9.316;2024-03-22T05:50:42;58.33;;;26.77;;
2784;SDS011;57944;48.722;9.316;2024-03-22T05:53:09;46.20;;;25.97;;
2784;SDS011;57944;48.722;9.316;2024-03-22T05:55:36;44.93;;;25.60;;
2784;SDS011;57944;48.722;9.316;2024-03-22T05:58:03;52.20;;;26.07;;
2784;SDS011;57944;48.722;9.316;2024-03-22T06:00:30;47.40;;;26.47;;
2784;SDS011;57944;48.722;9.316;2024-03-22T06:02:57;48.57;;;25.97;;
2784;SDS011;57944;48.722;9.316;2024-03-22T06:05:24;43.67;;;26.03;;
2784;SDS011;57944;48.722;9.316;2024-03-22T06:07:53;43.20;;;25.90;;
2784;SDS011;57944;48.722;9.316;2024-03-22T06:10:20;40.20;;;24.13;;
2784;SDS011;57944;48.722;9.316;2024-03-22T06:12:47;45.50;;;25.13;;
2784;SDS011;57944;48.722;9.316;2024-03-22T06:15:14;37.23;;;24.33;;
2784;SDS011;57944;48.722;9.316;2024-03-22T06:17:41;41.47;;;23.70;;
2784;SDS011;57944;48.722;9.316;2024-03-22T06:20:08;45.13;;;25.50;;
2784;SDS011;57944;48.722;9.316;2024-03-22T06:22:36;38.63;;;22.80;;
2784;SDS011;57944;48.722;9.316;2024-03-22T06:25:06;50.00;;;27.60;;
2784;SDS011;57944;48.722;9.316;2024-03-22T06:27:33;55.67;;;27.83;;
2784;SDS011;57944;48.722;9.316;2024-03-22T06:30:00;48.67;;;30.03;;
2784;SDS011;57944;48.722;9.316;2024-03-22T06:32:27;40.20;;;26.00;;
2784;SDS011;57944;48.722;9.316;2024-03-22T06:34:54;43.13;;;25.90;;
2784;SDS011;57944;48.722;9.316;2024-03-22T06:37:21;39.90;;;25.53;;
2784;SDS011;57944;48.722;9.316;2024-03-22T06:39:48;45.13;;;26.00;;
2784;SDS011;57944;48.722;9.316;2024-03-22T06:42:17;37.60;;;25.27;;
2784;SDS011;57944;48.722;9.316;2024-03-22T06:44:44;33.00;;;23.80;;
2784;SDS011;57944;48.722;9.316;2024-03-22T06:47:11;32.63;;;21.77;;
2784;SDS011;57944;48.722;9.316;2024-03-22T06:49:38;43.03;;;25.20;;
2784;SDS011;57944;48.722;9.316;2024-03-22T06:52:05;33.20;;;22.90;;
2784;SDS011;57944;48.722;9.316;2024-03-22T06:54:31;32.40;;;22.73;;
2784;SDS011;57944;48.722;9.316;2024-03-22T06:56:58;29.63;;;20.23;;
2784;SDS011;57944;48.722;9.316;2024-03-22T06:59:28;35.87;;;23.57;;
2784;SDS011;57944;48.722;9.316;2024-03-22T07:01:55;31.33;;;21.40;;
2784;SDS011;57944;48.722;9.316;2024-03-22T07:04:22;25.33;;;18.20;;
2784;SDS011;57944;48.722;9.316;2024-03-22T07:06:49;26.30;;;17.83;;
2784;SDS011;57944;48.722;9.316;2024-03-22T07:09:16;21.77;;;17.40;;
2784;SDS011;57944;48.722;9.316;2024-03-22T07:11:43;22.87;;;15.90;;
2784;SDS011;57944;48.722;9.316;2024-03-22T07:14:09;24.63;;;16.33;;
2784;SDS011;57944;48.722;9.316;2024-03-22T07:16:39;22.90;;;15.87;;
2784;SDS011;57944;48.722;9.316;2024-03-22T07:19:06;20.10;;;14.43;;
2784;SDS011;57944;48.722;9.316;2024-03-22T07:21:32;18.47;;;15.23;;
2784;SDS011;57944;48.722;9.316;2024-03-22T07:23:59;27.97;;;15.33;;
2784;SDS011;57944;48.722;9.316;2024-03-22T07:26:26;21.10;;;15.07;;
2784;SDS011;57944;48.722;9.316;2024-03-22T07:28:53;25.83;;;14.27;;
2784;SDS011;57944;48.722;9.316;2024-03-22T07:31:19;19.47;;;15.20;;
2784;SDS011;57944;48.722;9.316;2024-03-22T07:33:50;21.20;;;15.73;;
2784;SDS011;57944;48.722;9.316;2024-03-22T07:36:18;21.17;;;15.37;;
2784;SDS011;57944;48.722;9.316;2024-03-22T07:38:45;20.40;;;14.13;;
2784;SDS011;57944;48.722;9.316;2024-03-22T07:41:12;16.43;;;14.63;;
2784;SDS011;57944;48.722;9.316;2024-03-22T07:43:38;22.20;;;16.03;;
2784;SDS011;57944;48.722;9.316;2024-03-22T07:46:05;19.00;;;13.43;;
2784;SDS011;57944;48.722;9.316;2024-03-22T07:48:32;18.90;;;15.50;;
2784;SDS011;57944;48.722;9.316;2024-03-22T07:51:01;24.57;;;16.63;;
2784;SDS011;57944;48.722;9.316;2024-03-22T07:53:28;16.73;;;14.33;;
2784;SDS011;57944;48.722;9.316;2024-03-22T07:55:55;19.77;;;15.70;;
2784;SDS011;57944;48.722;9.316;2024-03-22T07:58:22;16.40;;;12.50;;
2784;SDS011;57944;48.722;9.316;2024-03-22T08:00:49;18.50;;;14.30;;
2784;SDS011;57944;48.722;9.316;2024-03-22T08:03:16;20.07;;;14.07;;
2784;SDS011;57944;48.722;9.316;2024-03-22T08:05:42;17.50;;;14.20;;
2784;SDS011;57944;48.722;9.316;2024-03-22T08:08:12;26.30;;;14.10;;
2784;SDS011;57944;48.722;9.316;2024-03-22T08:10:39;19.17;;;14.13;;
2784;SDS011;57944;48.722;9.316;2024-03-22T08:13:06;21.83;;;15.23;;
2784;SDS011;57944;48.722;9.316;2024-03-22T08:15:33;19.90;;;13.90;;
2784;SDS011;57944;48.722;9.316;2024-03-22T08:18:00;22.30;;;13.20;;
2784;SDS011;57944;48.722;9.316;2024-03-22T08:20:27;18.63;;;13.53;;
2784;SDS011;57944;48.722;9.316;2024-03-22T08:37:35;16.47;;;12.60;;
2784;SDS011;57944;48.722;9.316;2024-03-22T08:40:02;19.30;;;11.40;;
2784;SDS011;57944;48.722;9.316;2024-03-22T08:42:29;16.67;;;12.40;;
2784;SDS011;57944;48.722;9.316;2024-03-22T08:44:56;14.27;;;11.57;;
2784;SDS011;57944;48.722;9.316;2024-03-22T08:47:23;15.70;;;11.57;;
2784;SDS011;57944;48.722;9.316;2024-03-22T08:49:50;13.63;;;10.57;;
2784;SDS011;57944;48.722;9.316;2024-03-22T08:52:17;20.57;;;11.70;;
2784;SDS011;57944;48.722;9.316;2024-03-22T08:54:46;11.67;;;8.63;;
2784;SDS011;57944;48.722;9.316;2024-03-22T08:57:13;14.40;;;11.30;;
2784;SDS011;57944;48.722;9.316;2024-03-22T08:59:40;15.33;;;12.10;;
2784;SDS011;57944;48.722;9.316;2024-03-22T09:02:07;17.10;;;10.53;;
2784;SDS011;57944;48.722;9.316;2024-03-22T09:04:34;23.27;;;12.43;;
2784;SDS011;57944;48.722;9.316;2024-03-22T09:07:01;16.53;;;11.27;;
2784;SDS011;57944;48.722;9.316;2024-03-22T09:09:27;14.23;;;11.30;;
2784;SDS011;57944;48.722;9.316;2024-03-22T09:11:57;17.10;;;12.70;;
2784;SDS011;57944;48.722;9.316;2024-03-22T09:14:24;15.23;;;11.50;;
2784;SDS011;57944;48.722;9.316;2024-03-22T09:16:51;21.43;;;12.87;;
2784;SDS011;57944;48.722;9.316;2024-03-22T09:19:18;17.97;;;12.80;;
2784;SDS011;57944;48.722;9.316;2024-03-22T09:21:45;19.30;;;13.30;;
2784;SDS011;57944;48.722;9.316;2024-03-22T09:24:11;12.73;;;10.77;;
2784;SDS011;57944;48.722;9.316;2024-03-22T09:26:38;19.33;;;11.77;;
2784;SDS011;57944;48.722;9.316;2024-03-22T09:29:08;17.40;;;12.63;;
2784;SDS011;57944;48.722;9.316;2024-03-22T09:31:35;16.33;;;11.23;;
2784;SDS011;57944;48.722;9.316;2024-03-22T09:34:02;22.73;;;12.30;;
2784;SDS011;57944;48.722;9.316;2024-03-22T09:36:28;17.90;;;12.27;;
2784;SDS011;57944;48.722;9.316;2024-03-22T09:38:56;15.23;;;11.10;;
2784;SDS011;57944;48.722;9.316;2024-03-22T09:41:24;12.43;;;9.30;;
2784;SDS011;57944;48.722;9.316;2024-03-22T09:43:51;17.07;;;11.10;;
2784;SDS011;57944;48.722;9.316;2024-03-22T09:46:22;18.13;;;12.73;;
2784;SDS011;57944;48.722;9.316;2024-03-22T09:48:50;19.13;;;10.90;;
2784;SDS011;57944;48.722;9.316;2024-03-22T09:51:19;14.83;;;11.97;;
2784;SDS011;57944;48.722;9.316;2024-03-22T09:53:47;13.77;;;11.17;;
2784;SDS011;57944;48.722;9.316;2024-03-22T09:56:15;15.47;;;10.70;;
2784;SDS011;57944;48.722;9.316;2024-03-22T09:58:44;19.50;;;13.20;;
2784;SDS011;57944;48.722;9.316;2024-03-22T10:01:11;14.00;;;10.40;;
2784;SDS011;57944;48.722;9.316;2024-03-22T10:03:41;14.20;;;10.70;;
2784;SDS011;57944;48.722;9.316;2024-03-22T10:06:09;15.60;;;11.20;;
2784;SDS011;57944;48.722;9.316;2024-03-22T10:08:36;16.20;;;10.47;;
2784;SDS011;57944;48.722;9.316;2024-03-22T10:11:04;13.00;;;9.43;;
2784;SDS011;57944;48.722;9.316;2024-03-22T10:13:30;14.23;;;10.87;;
2784;SDS011;57944;48.722;9.316;2024-03-22T10:15:57;16.40;;;10.33;;
2784;SDS011;57944;48.722;9.316;2024-03-22T10:18:25;12.03;;;9.20;;
2784;SDS011;57944;48.722;9.316;2024-03-22T10:21:04;13.50;;;9.10;;
2784;SDS011;57944;48.722;9.316;2024-03-22T10:23:31;10.70;;;9.13;;
2784;SDS011;57944;48.722;9.316;2024-03-22T10:25:58;16.17;;;8.93;;
2784;SDS011;57944;48.722;9.316;2024-03-22T10:28:25;12.80;;;8.40;;
2784;SDS011;57944;48.722;9.316;2024-03-22T10:30:53;12.53;;;8.50;;
2784;SDS011;57944;48.722;9.316;2024-03-22T10:33:20;18.70;;;10.00;;
2784;SDS011;57944;48.722;9.316;2024-03-22T10:35:49;11.87;;;9.60;;
2784;SDS011;57944;48.722;9.316;2024-03-22T10:38:20;13.47;;;8.80;;
2784;SDS011;57944;48.722;9.316;2024-03-22T10:40:48;11.23;;;9.20;;
2784;SDS011;57944;48.722;9.316;2024-03-22T10:43:15;14.37;;;9.80;;
2784;SDS011;57944;48.722;9.316;2024-03-22T10:45:42;10.30;;;8.23;;
2784;SDS011;57944;48.722;9.316;2024-03-22T10:48:13;13.77;;;8.13;;
2784;SDS011;57944;48.722;9.316;2024-03-22T10:50:45;12.60;;;7.93;;
2784;SDS011;57944;48.722;9.316;2024-03-22T10:53:13;11.10;;;9.70;;
2784;SDS011;57944;48.722;9.316;2024-03-22T10:55:47;12.10;;;8.93;;
2784;SDS011;57944;48.722;9.316;2024-03-22T10:58:16;12.73;;;7.70;;
2784;SDS011;57944;48.722;9.316;2024-03-22T11:00:46;14.03;;;8.00;;
2784;SDS011;57944;48.722;9.316;2024-03-22T11:03:19;16.93;;;9.53;;
2784;SDS011;57944;48.722;9.316;2024-03-22T11:05:48;9.93;;;8.07;;
2784;SDS011;57944;48.722;9.316;2024-03-22T11:08:23;11.50;;;8.40;;
2784;SDS011;57944;48.722;9.316;2024-03-22T11:10:53;9.60;;;7.30;;
2784;SDS011;57944;48.722;9.316;2024-03-22T11:13:22;11.60;;;8.27;;
2784;SDS011;57944;48.722;9.316;2024-03-22T11:15:49;11.20;;;6.93;;
2784;SDS011;57944;48.722;9.316;2024-03-22T11:18:16;12.50;;;7.07;;
2784;SDS011;57944;48.722;9.316;2024-03-22T11:20:44;9.33;;;6.50;;
2784;SDS011;57944;48.722;9.316;2024-03-22T11:23:11;7.80;;;6.50;;
2784;SDS011;57944;48.722;9.316;2024-03-22T11:25:38;10.80;;;5.33;;
2784;SDS011;57944;48.722;9.316;2024-03-22T11:28:08;6.33;;;4.93;;
2784;SDS011;57944;48.722;9.316;2024-03-22T11:30:35;7.43;;;5.13;;
2784;SDS011;57944;48.722;9.316;2024-03-22T11:33:02;6.50;;;4.70;;
2784;SDS011;57944;48.722;9.316;2024-03-22T11:35:30;9.00;;;5.67;;
2784;SDS011;57944;48.722;9.316;2024-03-22T11:37:57;11.53;;;5.97;;
2784;SDS011;57944;48.722;9.316;2024-03-22T11:40:24;10.57;;;5.60;;
2784;SDS011;57944;48.722;9.316;2024-03-22T11:42:52;10.90;;;6.13;;
2784;SDS011;57944;48.722;9.316;2024-03-22T11:45:24;11.50;;;6.60;;
2784;SDS011;57944;48.722;9.316;2024-03-22T11:47:53;11.00;;;6.77;;
2784;SDS011;57944;48.722;9.316;2024-03-22T11:50:20;9.30;;;5.97;;
2784;SDS011;57944;48.722;9.316;2024-03-22T11:52:47;11.77;;;6.40;;
2784;SDS011;57944;48.722;9.316;2024-03-22T11:55:14;7.63;;;4.83;;
2784;SDS011;57944;48.722;9.316;2024-03-22T11:57:47;10.53;;;5.30;;
2784;SDS011;57944;48.722;9.316;2024-03-22T12:00:15;9.07;;;5.40;;
2784;SDS011;57944;48.722;9.316;2024-03-22T12:02:47;9.30;;;6.20;;
2784;SDS011;57944;48.722;9.316;2024-03-22T12:05:15;11.77;;;5.40;;
2784;SDS011;57944;48.722;9.316;2024-03-22T12:07:43;12.60;;;6.50;;
2784;SDS011;57944;48.722;9.316;2024-03-22T12:10:11;7.13;;;5.73;;
2784;SDS011;57944;48.722;9.316;2024-03-22T12:12:39;7.63;;;6.07;;
2784;SDS011;57944;48.722;9.316;2024-03-22T12:15:06;9.27;;;6.87;;
2784;SDS011;57944;48.722;9.316;2024-03-22T12:17:33;9.73;;;6.47;;
2784;SDS011;57944;48.722;9.316;2024-03-22T12:20:04;9.70;;;5.97;;
2784;SDS011;57944;48.722;9.316;2024-03-22T12:22:31;11.47;;;4.60;;
2784;SDS011;57944;48.722;9.316;2024-03-22T12:24:58;6.13;;;4.13;;
2784;SDS011;57944;48.722;9.316;2024-03-22T12:27:25;10.57;;;5.30;;
2784;SDS011;57944;48.722;9.316;2024-03-22T12:29:53;7.10;;;4.90;;
2784;SDS011;57944;48.722;9.316;2024-03-22T12:32:19;10.70;;;5.97;;
2784;SDS011;57944;48.722;9.316;2024-03-22T12:34:46;7.90;;;5.40;;
2784;SDS011;57944;48.722;9.316;2024-03-22T12:37:16;7.90;;;5.17;;
2784;SDS011;57944;48.722;9.316;2024-03-22T12:39:43;11.63;;;5.63;;
2784;SDS011;57944;48.722;9.316;2024-03-22T12:42:10;9.33;;;6.50;;
2784;SDS011;57944;48.722;9.316;2024-03-22T12:44:37;6.97;;;5.00;;
2784;SDS011;57944;48.722;9.316;2024-03-22T12:47:04;10.57;;;6.00;;
2784;SDS011;57944;48.722;9.316;2024-03-22T12:49:31;9.00;;;6.73;;
2784;SDS011;57944;48.722;9.316;2024-03-22T12:51:58;7.67;;;5.90;;
2784;SDS011;57944;48.722;9.316;2024-03-22T12:54:28;8.40;;;6.33;;
2784;SDS011;57944;48.722;9.316;2024-03-22T12:56:55;7.53;;;4.83;;
2784;SDS011;57944;48.722;9.316;2024-03-22T12:59:22;16.43;;;6.00;;
2784;SDS011;57944;48.722;9.316;2024-03-22T13:01:48;6.90;;;5.20;;
2784;SDS011;57944;48.722;9.316;2024-03-22T13:04:16;8.23;;;5.10;;
2784;SDS011;57944;48.722;9.316;2024-03-22T13:06:43;12.13;;;6.27;;
2784;SDS011;57944;48.722;9.316;2024-03-22T13:09:13;6.07;;;4.57;;
2784;SDS011;57944;48.722;9.316;2024-03-22T13:11:42;9.97;;;5.93;;
2784;SDS011;57944;48.722;9.316;2024-03-22T13:14:09;9.20;;;5.53;;
2784;SDS011;57944;48.722;9.316;2024-03-22T13:16:36;9.43;;;6.17;;
2784;SDS011;57944;48.722;9.316;2024-03-22T13:19:03;10.00;;;5.30;;
2784;SDS011;57944;48.722;9.316;2024-03-22T13:21:30;8.00;;;5.33;;
2784;SDS011;57944;48.722;9.316;2024-03-22T13:23:56;10.73;;;5.50;;
2784;SDS011;57944;48.722;9.316;2024-03-22T13:26:24;8.70;;;5.23;;
2784;SDS011;57944;48.722;9.316;2024-03-22T13:28:53;7.90;;;4.70;;
2784;SDS011;57944;48.722;9.316;2024-03-22T13:31:20;7.33;;;6.00;;
2784;SDS011;57944;48.722;9.316;2024-03-22T13:33:47;8.90;;;4.90;;
2784;SDS011;57944;48.722;9.316;2024-03-22T13:36:14;10.20;;;5.87;;
2784;SDS011;57944;48.722;9.316;2024-03-22T13:38:41;8.30;;;5.27;;
2784;SDS011;57944;48.722;9.316;2024-03-22T13:41:07;10.00;;;4.93;;
2784;SDS011;57944;48.722;9.316;2024-03-22T13:43:34;7.23;;;4.90;;
2784;SDS011;57944;48.722;9.316;2024-03-22T13:46:04;8.23;;;5.30;;
2784;SDS011;57944;48.722;9.316;2024-03-22T13:48:31;9.63;;;4.27;;
2784;SDS011;57944;48.722;9.316;2024-03-22T13:50:57;7.17;;;4.60;;
2784;SDS011;57944;48.722;9.316;2024-03-22T13:53:24;9.03;;;5.20;;
2784;SDS011;57944;48.722;9.316;2024-03-22T13:55:52;8.57;;;5.17;;
2784;SDS011;57944;48.722;9.316;2024-03-22T13:58:19;10.07;;;5.30;;
2784;SDS011;57944;48.722;9.316;2024-03-22T14:00:46;6.80;;;4.33;;
2784;SDS011;57944;48.722;9.316;2024-03-22T14:03:15;8.40;;;4.87;;
2784;SDS011;57944;48.722;9.316;2024-03-22T14:05:42;11.93;;;5.13;;
2784;SDS011;57944;48.722;9.316;2024-03-22T14:08:09;6.43;;;4.20;;
2784;SDS011;57944;48.722;9.316;2024-03-22T14:10:36;5.30;;;3.57;;
2784;SDS011;57944;48.722;9.316;2024-03-22T14:13:03;6.90;;;3.90;;
2784;SDS011;57944;48.722;9.316;2024-03-22T14:15:30;7.07;;;4.43;;
2784;SDS011;57944;48.722;9.316;2024-03-22T14:17:57;7.00;;;5.30;;
2784;SDS011;57944;48.722;9.316;2024-03-22T14:20:26;6.27;;;4.73;;
2784;SDS011;57944;48.722;9.316;2024-03-22T14:22:53;6.90;;;4.93;;
2784;SDS011;57944;48.722;9.316;2024-03-22T14:25:20;7.23;;;4.53;;
2784;SDS011;57944;48.722;9.316;2024-03-22T14:27:47;14.70;;;4.57;;
2784;SDS011;57944;48.722;9.316;2024-03-22T14:30:14;7.97;;;4.10;;
2784;SDS011;57944;48.722;9.316;2024-03-22T14:32:40;5.63;;;3.87;;
2784;SDS011;57944;48.722;9.316;2024-03-22T14:35:07;7.70;;;3.90;;
2784;SDS011;57944;48.722;9.316;2024-03-22T14:37:38;7.30;;;4.17;;
2784;SDS011;57944;48.722;9.316;2024-03-22T14:40:05;7.57;;;4.50;;
2784;SDS011;57944;48.722;9.316;2024-03-22T14:42:33;9.30;;;5.43;;
2784;SDS011;57944;48.722;9.316;2024-03-22T14:45:00;6.83;;;4.30;;
2784;SDS011;57944;48.722;9.316;2024-03-22T14:47:27;9.20;;;4.63;;
2784;SDS011;57944;48.722;9.316;2024-03-22T14:49:54;7.83;;;4.77;;
2784;SDS011;57944;48.722;9.316;2024-03-22T14:52:20;7.27;;;5.07;;
2784;SDS011;57944;48.722;9.316;2024-03-22T14:54:50;8.47;;;4.33;;
2784;SDS011;57944;48.722;9.316;2024-03-22T14:57:17;9.93;;;5.40;;